Time;durP1;ratioP1;P1;durP2;ratioP2;P2;SDS_P1;SDS_P2;PMS_P1;PMS_P2;Temp;Humidity;BMP_temperature;BMP_pressure;BME280_temperature;BME280_humidity;BME280_pressure;Samples;Min_cycle;Max_cycle;Signal;HPM_P1;HPM_P2
2021/05/20 02:46:35;;;;;;;1.85;1.85;;;8.60;99.90;;;;;;5805441;22;89310;-85
2021/05/20 02:49:00;;;;;;;2.33;2.22;;;8.60;99.90;;;;;;4964867;28;87376;-84
2021/05/20 02:51:26;;;;;;;2.42;2.33;;;8.60;99.90;;;;;;4948051;28;86963;-85
2021/05/20 02:53:51;;;;;;;2.47;2.38;;;8.60;99.90;;;;;;4949500;28;86220;-86
2021/05/20 02:56:17;;;;;;;2.10;2.00;;;8.60;99.90;;;;;;4967027;28;88533;-86
2021/05/20 02:58:43;;;;;;;1.70;1.70;;;8.60;99.90;;;;;;4964532;28;86932;-86
2021/05/20 03:01:09;;;;;;;2.22;2.13;;;8.50;99.90;;;;;;4965404;28;87587;-87
2021/05/20 03:03:34;;;;;;;2.40;2.30;;;8.40;99.90;;;;;;4959621;28;86754;-85
2021/05/20 03:06:00;;;;;;;2.42;2.33;;;8.40;99.90;;;;;;4964452;28;87253;-84
2021/05/20 03:08:26;;;;;;;2.25;2.15;;;8.30;99.90;;;;;;4964010;28;87230;-86
2021/05/20 03:10:51;;;;;;;1.70;1.70;;;8.30;99.90;;;;;;4966637;28;86944;-86
2021/05/20 03:13:17;;;;;;;2.08;1.98;;;8.30;99.90;;;;;;4963053;28;87125;-84
2021/05/20 03:15:43;;;;;;;2.75;2.10;;;8.30;99.90;;;;;;4950307;28;87784;-85
2021/05/20 03:18:08;;;;;;;1.95;1.90;;;8.30;99.90;;;;;;4963190;28;87345;-86
2021/05/20 03:20:34;;;;;;;2.20;2.10;;;8.30;99.90;;;;;;4967018;28;86757;-84
2021/05/20 03:23:00;;;;;;;3.13;2.92;;;8.20;99.90;;;;;;4965770;28;86555;-86
2021/05/20 03:25:25;;;;;;;2.35;2.25;;;8.20;99.90;;;;;;4963583;28;87876;-85
2021/05/20 03:27:51;;;;;;;1.80;1.70;;;8.20;99.90;;;;;;4965343;28;87893;-86
2021/05/20 03:30:17;;;;;;;1.60;1.50;;;8.20;99.90;;;;;;4966999;28;86956;-85
2021/05/20 03:32:43;;;;;;;2.63;2.42;;;8.20;99.90;;;;;;4966608;28;87602;-86
2021/05/20 03:35:09;;;;;;;2.65;2.55;;;8.20;99.90;;;;;;4966224;28;87072;-87
2021/05/20 03:37:36;;;;;;;2.50;2.40;;;8.20;99.90;;;;;;4964127;28;89349;-84
2021/05/20 03:40:03;;;;;;;2.13;2.03;;;8.10;99.90;;;;;;4965377;28;87018;-86
2021/05/20 03:42:29;;;;;;;2.63;2.50;;;8.20;99.90;;;;;;4963786;28;86262;-85
2021/05/20 03:44:54;;;;;;;2.67;2.58;;;8.20;99.90;;;;;;4963874;28;87727;-87
2021/05/20 03:47:20;;;;;;;2.40;2.30;;;8.20;99.90;;;;;;4965092;28;87454;-86
2021/05/20 03:49:46;;;;;;;2.83;2.72;;;8.30;99.90;;;;;;4972628;28;88358;-86
2021/05/20 03:52:11;;;;;;;2.88;2.78;;;8.30;99.90;;;;;;4979459;28;87034;-85
2021/05/20 03:54:40;;;;;;;2.90;2.80;;;8.30;99.90;;;;;;4965627;28;87095;-85
2021/05/20 03:57:06;;;;;;;2.78;2.60;;;8.30;99.90;;;;;;4967202;28;87356;-85
2021/05/20 03:59:32;;;;;;;2.30;2.20;;;8.40;99.90;;;;;;4967753;28;86955;-86
2021/05/20 04:01:57;;;;;;;2.47;2.28;;;8.40;99.90;;;;;;4962354;28;87277;-89
2021/05/20 04:04:23;;;;;;;3.00;2.80;;;8.40;99.90;;;;;;4953133;28;87464;-86
2021/05/20 04:06:49;;;;;;;2.70;2.60;;;8.40;99.90;;;;;;4961928;28;87125;-87
2021/05/20 04:09:14;;;;;;;2.40;2.30;;;8.40;99.90;;;;;;4966691;28;86891;-86
2021/05/20 04:11:40;;;;;;;2.70;2.60;;;8.40;99.90;;;;;;4950833;28;87039;-86
2021/05/20 04:14:06;;;;;;;2.28;2.13;;;8.30;99.90;;;;;;4966473;28;88129;-88
2021/05/20 04:16:32;;;;;;;2.25;2.15;;;;;;;;;;4978926;28;87950;-87
2021/05/20 04:18:58;;;;;;;2.05;1.95;;;;;;;;;;4971282;28;86990;-87
2021/05/20 04:21:24;;;;;;;2.28;2.17;;;8.30;99.90;;;;;;4969213;28;87060;-86
2021/05/20 04:23:50;;;;;;;2.63;2.53;;;8.30;99.90;;;;;;4963591;28;87274;-89
2021/05/20 04:26:19;;;;;;;2.47;2.28;;;8.20;99.90;;;;;;4949903;28;88489;-85
2021/05/20 04:28:49;;;;;;;3.17;2.97;;;8.20;99.90;;;;;;4967156;28;86896;-87
2021/05/20 04:31:15;;;;;;;2.25;2.15;;;8.30;99.90;;;;;;4983008;28;86175;-86
2021/05/20 04:33:41;;;;;;;2.38;2.00;;;8.30;99.90;;;;;;4980583;28;87232;-85
2021/05/20 04:36:07;;;;;;;2.20;2.00;;;8.40;99.90;;;;;;4972985;28;86742;-84
2021/05/20 04:38:33;;;;;;;2.58;2.38;;;8.40;99.90;;;;;;4964190;28;88032;-83
2021/05/20 04:40:59;;;;;;;2.40;2.30;;;8.50;99.90;;;;;;4970268;28;86971;-85
2021/05/20 04:43:25;;;;;;;2.42;2.33;;;8.50;99.90;;;;;;4965580;28;87054;-84
2021/05/20 04:45:50;;;;;;;2.33;2.20;;;8.60;99.90;;;;;;4965358;28;87044;-83
2021/05/20 04:48:17;;;;;;;2.80;2.60;;;8.70;99.90;;;;;;4959878;28;87073;-85
2021/05/20 04:50:42;;;;;;;3.00;2.42;;;8.70;99.90;;;;;;4943072;28;87714;-83
2021/05/20 04:53:11;;;;;;;2.63;2.35;;;8.80;99.90;;;;;;4960476;28;88618;-82
2021/05/20 04:55:37;;;;;;;2.97;2.78;;;8.70;99.90;;;;;;4956450;28;86801;-84
2021/05/20 04:58:03;;;;;;;2.78;2.60;;;8.80;99.90;;;;;;4961108;28;86985;-85
2021/05/20 05:00:29;;;;;;;3.42;3.00;;;;;;;;;;4954878;28;86815;-86
2021/05/20 05:02:55;;;;;;;2.88;2.67;;;8.80;99.90;;;;;;4958369;28;88103;-87
2021/05/20 05:05:20;;;;;;;3.88;3.38;;;8.90;99.90;;;;;;4965695;28;87953;-88
2021/05/20 05:07:46;;;;;;;3.42;3.22;;;8.90;99.90;;;;;;4962189;28;86897;-84
2021/05/20 05:10:12;;;;;;;5.00;2.80;;;8.90;99.90;;;;;;4965813;28;86796;-87
2021/05/20 05:12:38;;;;;;;3.33;3.05;;;9.00;99.90;;;;;;4959847;28;87131;-86
2021/05/20 05:15:06;;;;;;;3.60;3.03;;;9.10;99.90;;;;;;4963537;28;87079;-85
2021/05/20 05:17:32;;;;;;;3.90;3.67;;;9.20;99.90;;;;;;4960987;28;87029;-85
2021/05/20 05:19:58;;;;;;;5.35;3.50;;;9.20;99.90;;;;;;4959050;28;86320;-86
2021/05/20 05:22:24;;;;;;;4.07;3.78;;;9.30;99.90;;;;;;4966048;28;88005;-85
2021/05/20 05:24:50;;;;;;;3.58;3.25;;;9.30;99.90;;;;;;4952936;28;88951;-86
2021/05/20 05:27:16;;;;;;;3.33;3.03;;;9.10;99.90;;;;;;4971233;28;87954;-85
2021/05/20 05:29:43;;;;;;;3.63;3.40;;;8.80;99.90;;;;;;4963076;28;87027;-85
2021/05/20 05:32:09;;;;;;;4.05;3.65;;;8.80;99.90;;;;;;4956867;28;88336;-88
2021/05/20 05:34:35;;;;;;;3.10;2.90;;;8.90;99.90;;;;;;4946645;28;91235;-86
2021/05/20 05:37:01;;;;;;;3.03;2.70;;;8.80;99.90;;;;;;4963525;28;87620;-86
2021/05/20 05:39:28;;;;;;;2.88;2.67;;;8.70;99.90;;;;;;4968419;28;86973;-86
2021/05/20 05:41:54;;;;;;;2.50;2.30;;;8.70;99.90;;;;;;4961980;28;86756;-86
2021/05/20 05:44:20;;;;;;;2.97;2.78;;;8.70;99.90;;;;;;4964322;28;87435;-85
2021/05/20 05:46:46;;;;;;;2.70;2.50;;;8.70;99.90;;;;;;4957802;28;86963;-89
2021/05/20 05:49:17;;;;;;;4.45;2.85;;;8.80;99.90;;;;;;4960535;28;86870;-87
2021/05/20 05:51:51;;;;;;;3.03;2.83;;;8.90;99.90;;;;;;4952141;28;89077;-87
2021/05/20 05:54:17;;;;;;;2.78;2.53;;;;;;;;;;4957536;28;89012;-85
2021/05/20 05:56:43;;;;;;;4.07;3.78;;;9.10;99.90;;;;;;4956129;28;87256;-86
2021/05/20 05:59:10;;;;;;;3.28;3.13;;;9.10;99.90;;;;;;4961330;28;86898;-86
2021/05/20 06:01:38;;;;;;;3.45;3.15;;;9.20;99.90;;;;;;4959451;28;87182;-86
2021/05/20 06:04:06;;;;;;;5.47;5.10;;;9.40;99.90;;;;;;4957304;28;88426;-86
2021/05/20 06:06:32;;;;;;;3.20;2.90;;;9.50;99.90;;;;;;4965215;28;86999;-85
2021/05/20 06:08:57;;;;;;;2.50;2.40;;;9.60;99.90;;;;;;4969555;28;85722;-86
2021/05/20 06:11:23;;;;;;;2.97;2.78;;;9.70;99.90;;;;;;4967107;28;87459;-84
2021/05/20 06:13:49;;;;;;;2.80;2.60;;;9.80;99.90;;;;;;4964720;28;87355;-86
2021/05/20 06:16:14;;;;;;;3.22;2.92;;;9.90;99.90;;;;;;4965525;28;87247;-87
2021/05/20 06:18:40;;;;;;;3.00;2.80;;;10.10;99.90;;;;;;4963514;28;86906;-85
2021/05/20 06:21:06;;;;;;;3.42;3.22;;;10.20;99.90;;;;;;4970810;28;88353;-85
2021/05/20 06:23:31;;;;;;;2.65;2.55;;;10.30;99.90;;;;;;4987476;28;86197;-87
2021/05/20 06:25:57;;;;;;;2.85;2.65;;;10.50;99.90;;;;;;4985254;28;86374;-86
2021/05/20 06:28:25;;;;;;;3.40;3.10;;;10.60;99.90;;;;;;4981296;28;86600;-87
2021/05/20 06:30:51;;;;;;;2.75;2.65;;;10.60;99.90;;;;;;4970224;28;87080;-85
2021/05/20 06:33:17;;;;;;;2.80;2.70;;;10.70;99.90;;;;;;4978057;28;86185;-86
2021/05/20 06:35:43;;;;;;;3.05;2.85;;;10.60;99.90;;;;;;4985067;28;86795;-84
2021/05/20 06:38:08;;;;;;;4.28;4.07;;;10.50;99.90;;;;;;4983450;28;86777;-85
2021/05/20 06:40:34;;;;;;;3.33;3.13;;;10.60;99.90;;;;;;4972953;28;88550;-85
2021/05/20 06:42:59;;;;;;;3.00;2.90;;;10.50;99.90;;;;;;4970414;28;89276;-85
2021/05/20 06:45:25;;;;;;;3.28;3.08;;;10.30;99.90;;;;;;4973533;28;86944;-87
2021/05/20 06:47:55;;;;;;;3.20;3.10;;;10.20;99.90;;;;;;4966338;28;86920;-86
2021/05/20 06:50:21;;;;;;;2.70;2.60;;;10.10;99.90;;;;;;4966376;28;88144;-86
2021/05/20 06:52:50;;;;;;;3.80;3.60;;;10.10;99.90;;;;;;4959848;28;87383;-87
2021/05/20 06:55:16;;;;;;;3.53;3.42;;;10.10;99.90;;;;;;4968288;28;86891;-87
2021/05/20 07:00:26;;;;;;;3.22;3.03;;;9.90;99.90;;;;;;4962906;28;87194;-85
2021/05/20 07:02:51;;;;;;;2.70;2.60;;;9.80;99.90;;;;;;4974174;28;86977;-84
2021/05/20 07:05:17;;;;;;;3.00;2.90;;;9.80;99.90;;;;;;4979333;28;87547;-86
2021/05/20 07:07:43;;;;;;;3.13;2.92;;;9.90;99.90;;;;;;4970384;28;86509;-86
2021/05/20 07:10:10;;;;;;;3.17;2.80;;;9.80;99.90;;;;;;4966035;28;88252;-86
2021/05/20 07:12:36;;;;;;;3.00;2.90;;;9.90;99.90;;;;;;4966434;28;89150;-85
2021/05/20 07:15:03;;;;;;;3.10;2.90;;;9.90;99.90;;;;;;4970769;28;86584;-85
2021/05/20 07:17:29;;;;;;;3.10;2.90;;;10.00;99.90;;;;;;4970399;28;87023;-85
2021/05/20 07:19:55;;;;;;;2.40;2.30;;;10.10;99.90;;;;;;4970897;28;87057;-86
2021/05/20 07:22:21;;;;;;;2.40;2.30;;;10.10;99.90;;;;;;4966537;28;86173;-86
2021/05/20 07:24:46;;;;;;;2.70;2.60;;;10.30;99.90;;;;;;4963222;28;86653;-84
2021/05/20 07:27:12;;;;;;;3.50;3.20;;;10.40;99.90;;;;;;4962647;28;87043;-84
2021/05/20 07:29:38;;;;;;;2.50;2.40;;;10.60;99.90;;;;;;4967178;28;88342;-84
2021/05/20 07:32:04;;;;;;;4.70;4.30;;;10.70;99.90;;;;;;4955743;28;88781;-85
2021/05/20 07:34:32;;;;;;;3.00;2.90;;;10.90;99.90;;;;;;4964961;28;87735;-85
2021/05/20 07:36:59;;;;;;;3.78;3.58;;;11.00;99.90;;;;;;4970342;28;86946;-83
2021/05/20 07:39:24;;;;;;;5.70;5.40;;;11.10;99.90;;;;;;4960610;28;88795;-83
2021/05/20 07:41:50;;;;;;;4.00;3.80;;;11.10;99.90;;;;;;4966052;28;87784;-86
2021/05/20 07:44:16;;;;;;;5.03;4.72;;;11.30;99.90;;;;;;4954109;28;86871;-84
2021/05/20 07:46:42;;;;;;;3.25;3.08;;;11.50;99.90;;;;;;4968438;28;86249;-83
2021/05/20 07:49:08;;;;;;;4.25;3.90;;;11.60;99.90;;;;;;4960348;28;87092;-85
2021/05/20 07:51:34;;;;;;;3.95;3.75;;;11.60;99.90;;;;;;4960715;28;86948;-83
2021/05/20 07:53:59;;;;;;;4.90;4.65;;;11.60;99.90;;;;;;4970146;28;87997;-83
2021/05/20 07:56:26;;;;;;;3.40;3.20;;;11.70;99.90;;;;;;4957352;28;86994;-84
2021/05/20 07:58:54;;;;;;;3.88;3.35;;;11.90;99.90;;;;;;4965044;28;88144;-85
2021/05/20 08:01:21;;;;;;;4.55;4.35;;;12.10;99.90;;;;;;4960598;28;87454;-84
2021/05/20 08:03:57;;;;;;;3.70;3.50;;;12.30;99.90;;;;;;4964112;28;86994;-86
2021/05/20 08:06:41;;;;;;;2.70;2.60;;;12.40;99.90;;;;;;4961697;28;87144;-84
2021/05/20 08:09:18;;;;;;;3.45;3.25;;;12.60;99.90;;;;;;4964304;28;87288;-84
2021/05/20 08:11:44;;;;;;;3.70;3.50;;;13.00;99.90;;;;;;4963308;28;87403;-85
2021/05/20 08:14:09;;;;;;;4.75;4.47;;;13.40;99.90;;;;;;4962038;28;86633;-84
2021/05/20 08:16:35;;;;;;;3.47;3.28;;;13.90;99.90;;;;;;4964904;28;87049;-84
2021/05/20 08:19:01;;;;;;;3.38;3.17;;;14.10;99.90;;;;;;4967461;28;88221;-84
2021/05/20 08:21:28;;;;;;;3.33;3.22;;;14.20;98.70;;;;;;4961860;28;87871;-83
2021/05/20 08:23:54;;;;;;;2.85;2.75;;;14.10;99.30;;;;;;4958066;28;86935;-82
2021/05/20 08:26:24;;;;;;;3.70;3.50;;;14.10;99.20;;;;;;4949093;28;86996;-85
2021/05/20 08:28:54;;;;;;;4.13;3.93;;;14.00;98.60;;;;;;4956646;28;87658;-85
2021/05/20 08:31:20;;;;;;;4.18;3.90;;;13.90;99.50;;;;;;4966804;28;87071;-84
2021/05/20 08:33:46;;;;;;;3.55;3.35;;;13.80;99.50;;;;;;4965240;28;86636;-85
2021/05/20 08:36:12;;;;;;;3.65;3.45;;;13.60;99.90;;;;;;4967441;28;85948;-85
2021/05/20 08:38:38;;;;;;;3.55;3.45;;;13.60;99.90;;;;;;4964249;28;87505;-83
2021/05/20 08:41:04;;;;;;;3.35;3.15;;;14.10;99.90;;;;;;4965454;28;86982;-84
2021/05/20 08:43:31;;;;;;;4.72;4.43;;;14.40;99.90;;;;;;4960214;28;87855;-83
2021/05/20 08:45:57;;;;;;;4.30;4.00;;;14.30;99.10;;;;;;4972065;28;87307;-84
2021/05/20 08:48:23;;;;;;;5.60;5.30;;;14.40;98.50;;;;;;4958152;28;87974;-83
2021/05/20 08:50:49;;;;;;;5.55;5.25;;;14.30;97.00;;;;;;4953795;28;86971;-84
2021/05/20 08:53:15;;;;;;;6.82;6.43;;;14.20;98.10;;;;;;4954946;28;86918;-82
2021/05/20 08:55:41;;;;;;;3.42;3.22;;;14.20;98.00;;;;;;4969342;28;86986;-83
2021/05/20 08:58:10;;;;;;;7.10;6.80;;;14.30;97.00;;;;;;4954165;28;87349;-85
2021/05/20 09:00:37;;;;;;;4.47;4.28;;;14.10;98.50;;;;;;4962574;28;87997;-84
2021/05/20 09:03:13;;;;;;;5.05;4.75;;;14.20;97.80;;;;;;4963492;28;87147;-84
2021/05/20 09:05:41;;;;;;;6.68;6.43;;;14.40;97.80;;;;;;4959861;28;87006;-83
2021/05/20 09:08:12;;;;;;;5.80;5.50;;;15.60;97.10;;;;;;4957535;28;88616;-83
2021/05/20 09:10:39;;;;;;;6.80;6.35;;;17.00;94.60;;;;;;4959072;28;87390;-83
2021/05/20 09:13:19;;;;;;;6.35;5.85;;;18.50;90.00;;;;;;4963020;28;86994;-84
2021/05/20 09:15:49;;;;;;;5.90;5.60;;;20.20;82.80;;;;;;4965007;28;87061;-86
2021/05/20 09:18:21;;;;;;;7.57;7.28;;;22.10;71.10;;;;;;4967952;28;89672;-86
2021/05/20 09:20:50;;;;;;;5.97;5.65;;;23.60;61.60;;;;;;4965031;28;87031;-85
2021/05/20 09:23:22;;;;;;;8.07;7.77;;;25.30;59.00;;;;;;4963895;28;86611;-85
2021/05/20 09:25:51;;;;;;;9.98;9.57;;;26.40;52.20;;;;;;4946961;28;86427;-87
2021/05/20 09:28:30;;;;;;;9.50;9.13;;;27.60;47.30;;;;;;4971899;28;86752;-86
2021/05/20 09:30:56;;;;;;;15.68;15.07;;;28.40;46.30;;;;;;4966696;28;89121;-86
2021/05/20 09:33:22;;;;;;;9.75;9.35;;;;;;;;;;4965291;28;87672;-86
2021/05/20 09:35:49;;;;;;;10.30;9.88;;;29.10;44.70;;;;;;4976369;28;86927;-86
2021/05/20 09:38:20;;;;;;;9.55;9.15;;;28.80;42.10;;;;;;4962201;28;87087;-87
2021/05/20 09:40:55;;;;;;;8.68;8.38;;;28.20;43.00;;;;;;4960265;28;87438;-85
2021/05/20 09:43:24;;;;;;;7.47;7.18;;;28.70;42.50;;;;;;4960905;28;86927;-86
2021/05/20 09:45:52;;;;;;;7.03;6.80;;;29.20;40.50;;;;;;4966091;28;87301;-88
2021/05/20 09:48:25;;;;;;;8.68;8.38;;;30.00;40.40;;;;;;4959055;28;87691;-87
2021/05/20 09:50:56;;;;;;;7.63;7.22;;;29.90;40.90;;;;;;4966667;28;87014;-87
2021/05/20 09:53:24;;;;;;;5.80;5.60;;;30.30;39.30;;;;;;4956407;28;86954;-87
2021/05/20 09:55:55;;;;;;;5.72;5.43;;;30.80;37.60;;;;;;4971729;28;87012;-87
2021/05/20 09:58:22;;;;;;;;;;;30.90;38.50;;;;;;4960005;28;87897;-87
2021/05/20 10:00:49;;;;;;;6.40;6.10;;;29.10;39.10;;;;;;4947252;28;88691;-85
2021/05/20 10:03:18;;;;;;;5.38;5.13;;;27.40;41.40;;;;;;4946895;28;87003;-85
2021/05/20 10:05:56;;;;;;;6.20;5.90;;;25.60;43.10;;;;;;4956091;28;87491;-86
2021/05/20 10:08:23;;;;;;;5.55;5.35;;;24.70;44.60;;;;;;4951628;28;87761;-86
2021/05/20 10:10:54;;;;;;;8.35;6.47;;;24.30;45.00;;;;;;4963698;28;86886;-86
2021/05/20 10:13:26;;;;;;;13.57;12.32;;;23.50;46.30;;;;;;4965226;28;86947;-84
2021/05/20 10:15:57;;;;;;;13.90;13.40;;;24.40;46.70;;;;;;4974201;28;86267;-86
2021/05/20 10:18:25;;;;;;;7.65;7.28;;;23.60;47.40;;;;;;4963756;28;87126;-86
2021/05/20 10:20:57;;;;;;;12.05;11.20;;;23.70;44.50;;;;;;4949463;28;90437;-86
2021/05/20 10:23:25;;;;;;;10.07;9.68;;;22.70;45.10;;;;;;4966558;28;87829;-83
2021/05/20 10:25:52;;;;;;;10.38;10.00;;;23.60;44.00;;;;;;4966115;28;86880;-84
2021/05/20 10:28:25;;;;;;;11.30;10.80;;;25.30;41.40;;;;;;4961642;28;87031;-87
2021/05/20 10:30:53;;;;;;;11.27;10.65;;;25.50;41.00;;;;;;4957332;28;87961;-86
2021/05/20 10:33:26;;;;;;;11.05;10.65;;;24.90;42.70;;;;;;4957933;28;87262;-85
2021/05/20 10:35:54;;;;;;;9.43;9.13;;;24.70;42.80;;;;;;4958673;28;87145;-85
2021/05/20 10:38:25;;;;;;;11.27;10.88;;;25.00;42.80;;;;;;4957144;28;87638;-86
2021/05/20 10:41:09;;;;;;;10.65;10.20;;;24.70;43.00;;;;;;4961126;28;86309;-87
2021/05/20 10:43:35;;;;;;;7.65;7.15;;;;;;;;;;4967131;28;86555;-84
2021/05/20 10:46:05;;;;;;;8.75;8.35;;;22.90;44.30;;;;;;4959048;28;87054;-86
2021/05/20 10:48:32;;;;;;;8.10;7.80;;;22.70;46.10;;;;;;4960153;28;89093;-85
2021/05/20 10:51:10;;;;;;;7.25;7.00;;;22.20;47.10;;;;;;4964488;28;88328;-86
2021/05/20 10:53:40;;;;;;;11.45;11.00;;;21.70;47.60;;;;;;4963437;28;86896;-85
2021/05/20 10:56:29;;;;;;;8.95;8.52;;;21.50;48.50;;;;;;4964530;28;86999;-86
2021/05/20 10:58:57;;;;;;;8.85;8.00;;;;;;;;;;4964837;28;87694;-85
2021/05/20 11:01:24;;;;;;;5.63;5.43;;;21.30;47.90;;;;;;4958593;28;87646;-84
2021/05/20 11:03:59;;;;;;;7.47;7.18;;;20.90;52.40;;;;;;4967736;28;86881;-83
2021/05/20 11:06:46;;;;;;;6.35;5.95;;;21.10;48.10;;;;;;4976510;28;86257;-84
2021/05/20 11:09:15;;;;;;;5.53;5.32;;;20.10;50.00;;;;;;4966972;28;87286;-85
2021/05/20 11:11:41;;;;;;;7.75;6.07;;;19.40;52.20;;;;;;4980633;28;86803;-83
2021/05/20 11:14:26;;;;;;;5.10;4.72;;;19.80;52.90;;;;;;4955362;28;87960;-85
2021/05/20 11:16:53;;;;;;;4.65;4.45;;;22.50;51.90;;;;;;4962316;28;86674;-87
2021/05/20 11:19:19;;;;;;;7.05;6.78;;;22.50;51.90;;;;;;4972739;28;87845;-90
2021/05/20 11:22:04;;;;;;;7.57;7.22;;;22.60;46.70;;;;;;4965806;28;87378;-88
2021/05/20 11:24:42;;;;;;;7.20;6.70;;;24.10;45.80;;;;;;4976559;28;87137;-86
2021/05/20 11:27:19;;;;;;;8.10;7.70;;;24.90;43.10;;;;;;4981131;28;86246;-88
2021/05/20 11:29:48;;;;;;;9.00;8.60;;;25.50;43.90;;;;;;4962367;28;89505;-87
2021/05/20 11:37:23;;;;;;;5.10;4.90;;;28.80;34.50;;;;;;4969497;28;86857;-87
2021/05/20 11:39:49;;;;;;;4.57;4.28;;;30.10;33.20;;;;;;4950590;28;87893;-88
2021/05/20 11:42:29;;;;;;;5.53;5.15;;;28.80;35.90;;;;;;4969500;28;88341;-88
2021/05/20 11:44:55;;;;;;;5.93;5.45;;;26.80;42.10;;;;;;4959844;28;86719;-87
2021/05/20 11:47:22;;;;;;;6.55;6.10;;;23.70;47.00;;;;;;4957359;28;86738;-87
2021/05/20 11:49:49;;;;;;;8.43;8.13;;;23.70;47.60;;;;;;4973753;28;87736;-87
2021/05/20 11:52:15;;;;;;;12.68;12.18;;;22.50;49.90;;;;;;4969371;28;87155;-87
2021/05/20 11:54:48;;;;;;;10.63;10.23;;;21.50;51.40;;;;;;4975015;28;86995;-86
2021/05/20 11:57:16;;;;;;;9.70;9.30;;;21.30;51.60;;;;;;4964016;28;86148;-88
2021/05/20 11:59:47;;;;;;;7.10;6.80;;;23.60;48.00;;;;;;4959758;28;87528;-87
2021/05/20 12:02:15;;;;;;;9.75;9.35;;;23.50;48.30;;;;;;4967832;28;87141;-88
2021/05/20 12:04:42;;;;;;;9.55;9.15;;;24.80;46.50;;;;;;4970559;28;88040;-86
2021/05/20 12:07:17;;;;;;;11.25;10.75;;;26.20;45.70;;;;;;4973892;28;86879;-86
2021/05/20 12:09:42;;;;;;;10.90;10.40;;;28.20;43.00;;;;;;4975545;28;87430;-87
2021/05/20 12:12:10;;;;;;;10.38;9.98;;;29.50;40.90;;;;;;4967411;28;86809;-87
2021/05/20 12:14:36;;;;;;;6.18;5.88;;;30.50;39.40;;;;;;4977810;28;86937;-85
2021/05/20 12:17:11;;;;;;;6.05;5.85;;;31.40;39.20;;;;;;4970799;28;87084;-85
2021/05/20 12:19:40;;;;;;;5.55;5.35;;;32.40;38.30;;;;;;4960738;28;87583;-90
2021/05/20 12:22:08;;;;;;;3.30;3.10;;;32.90;37.50;;;;;;4970378;28;87442;-84
2021/05/20 12:24:37;;;;;;;2.50;2.40;;;32.50;37.10;;;;;;4965273;28;86970;-85
2021/05/20 12:27:11;;;;;;;2.95;2.50;;;32.60;35.40;;;;;;4964330;28;86927;-86
2021/05/20 12:29:41;;;;;;;2.30;2.20;;;31.60;35.60;;;;;;4969584;28;88573;-86
2021/05/20 12:32:23;;;;;;;2.20;2.10;;;30.20;36.70;;;;;;4976133;28;88946;-87
2021/05/20 12:35:06;;;;;;;2.33;2.22;;;28.70;38.70;;;;;;4956047;28;87090;-88
2021/05/20 12:37:45;;;;;;;2.60;2.50;;;27.50;40.30;;;;;;4971573;28;86999;-88
2021/05/20 12:40:17;;;;;;;2.60;2.50;;;26.50;41.60;;;;;;4968064;28;87690;-87
2021/05/20 12:42:50;;;;;;;2.40;2.30;;;25.60;42.70;;;;;;4956341;28;87747;-88
2021/05/20 12:45:15;;;;;;;2.70;2.60;;;25.10;43.20;;;;;;4969701;28;87408;-87
2021/05/20 12:47:49;;;;;;;2.60;2.40;;;24.50;44.80;;;;;;4958655;28;86103;-86
2021/05/20 12:50:37;;;;;;;2.72;2.60;;;24.10;45.20;;;;;;4948160;28;87549;-87
2021/05/20 12:53:03;;;;;;;2.83;2.63;;;23.70;46.00;;;;;;4948563;28;87504;-87
2021/05/20 12:55:38;;;;;;;2.70;2.60;;;23.30;47.60;;;;;;4973871;28;87994;-86
2021/05/20 12:58:05;;;;;;;2.65;2.55;;;22.70;48.90;;;;;;4981796;28;87049;-86
2021/05/20 13:00:59;;;;;;;2.60;2.40;;;22.40;49.20;;;;;;4966807;28;87050;-86
2021/05/20 13:03:46;;;;;;;2.45;2.35;;;22.10;49.00;;;;;;4967051;28;86990;-87
2021/05/20 13:06:20;;;;;;;2.40;2.25;;;21.80;49.70;;;;;;4949654;28;87024;-87
2021/05/20 13:08:45;;;;;;;2.58;2.38;;;21.50;50.80;;;;;;4956655;28;86360;-85
2021/05/20 13:11:19;;;;;;;1.90;1.80;;;21.40;51.30;;;;;;4947339;28;86690;-86
2021/05/20 13:13:48;;;;;;;2.47;2.30;;;21.10;51.90;;;;;;4954663;28;87681;-87
2021/05/20 13:16:39;;;;;;;2.50;2.30;;;20.80;53.20;;;;;;4967703;28;86830;-86
2021/05/20 13:24:35;;;;;;;2.50;2.40;;;21.40;50.60;;;;;;4960622;28;87924;-89
2021/05/20 13:27:01;;;;;;;2.60;2.40;;;20.90;53.40;;;;;;4973407;28;86959;-88
2021/05/20 13:29:58;;;;;;;2.70;2.60;;;21.50;53.10;;;;;;4973306;28;86951;-89
2021/05/20 13:34:51;;;;;;;2.80;2.70;;;21.70;51.30;;;;;;4969459;28;87040;-86
2021/05/20 13:37:17;;;;;;;2.75;2.55;;;21.80;51.20;;;;;;4963760;28;87530;-86
2021/05/20 13:39:43;;;;;;;2.35;2.25;;;20.70;53.50;;;;;;4963402;28;86117;-83
2021/05/20 13:42:09;;;;;;;3.17;2.88;;;19.90;55.90;;;;;;4967053;28;87534;-85
2021/05/20 13:44:43;;;;;;;4.30;4.00;;;;;;;;;;4966453;28;86986;-85
2021/05/20 13:47:09;;;;;;;1.90;1.80;;;21.00;51.10;;;;;;4960592;28;88073;-85
2021/05/20 13:49:39;;;;;;;4.10;3.90;;;;;;;;;;4968839;28;86981;-84
2021/05/20 13:52:08;;;;;;;2.45;2.28;;;19.70;53.50;;;;;;4965805;28;87237;-84
2021/05/20 13:54:33;;;;;;;3.80;3.60;;;18.60;58.20;;;;;;4965639;28;87008;-84
2021/05/20 13:57:01;;;;;;;3.85;3.65;;;18.40;60.60;;;;;;4966131;28;87054;-82
2021/05/20 13:59:27;;;;;;;3.30;3.20;;;18.80;58.60;;;;;;4957750;28;87155;-82
2021/05/20 14:01:54;;;;;;;3.50;3.30;;;18.30;60.60;;;;;;4964012;28;87498;-82
2021/05/20 14:04:35;;;;;;;4.20;4.00;;;18.80;61.30;;;;;;4963902;28;86285;-82
2021/05/20 14:07:01;;;;;;;4.72;4.43;;;;;;;;;;4964421;28;86968;-83
2021/05/20 14:09:27;;;;;;;4.55;4.15;;;20.80;60.90;;;;;;4961772;28;88464;-84
2021/05/20 14:11:53;;;;;;;1.95;1.85;;;20.20;53.40;;;;;;4963862;28;88403;-82
2021/05/20 14:14:19;;;;;;;5.05;4.65;;;20.10;60.60;;;;;;4959964;28;87070;-83
2021/05/20 14:16:44;;;;;;;4.35;3.10;;;20.30;52.80;;;;;;4963117;28;86874;-83
2021/05/20 14:19:11;;;;;;;6.80;6.20;;;20.00;60.60;;;;;;4962720;28;87017;-83
2021/05/20 14:21:37;;;;;;;3.42;3.08;;;20.10;53.00;;;;;;4963065;28;87357;-84
2021/05/20 14:24:04;;;;;;;3.92;3.72;;;20.10;63.10;;;;;;4946014;28;90208;-84
2021/05/20 14:26:29;;;;;;;3.45;3.35;;;18.80;61.10;;;;;;4965838;28;87000;-83
2021/05/20 14:28:55;;;;;;;3.60;3.50;;;19.50;59.70;;;;;;4973001;28;86438;-85
2021/05/20 14:31:22;;;;;;;3.67;3.53;;;;;;;;;;4970451;28;87114;-85
2021/05/20 14:33:47;;;;;;;3.30;3.20;;;19.00;59.60;;;;;;4971043;28;87737;-86
2021/05/20 14:36:13;;;;;;;2.00;1.90;;;18.90;56.90;;;;;;4962177;28;88040;-83
2021/05/20 14:38:39;;;;;;;3.50;3.40;;;;;;;;;;4963190;28;86811;-84
2021/05/20 14:41:05;;;;;;;2.63;2.42;;;18.50;56.50;;;;;;4962949;28;86897;-83
2021/05/20 14:43:30;;;;;;;3.45;3.35;;;19.10;61.70;;;;;;4971132;28;86470;-85
2021/05/20 14:45:59;;;;;;;2.20;2.10;;;18.20;57.30;;;;;;4969521;28;87895;-84
2021/05/20 14:48:25;;;;;;;1.98;1.88;;;18.10;57.90;;;;;;4966143;28;87284;-85
2021/05/20 14:51:05;;;;;;;5.03;4.50;;;;;;;;;;4969462;28;86994;-87
2021/05/20 14:53:33;;;;;;;2.50;2.30;;;18.80;59.50;;;;;;4971066;28;87307;-87
2021/05/20 14:57:06;;;;;;;4.18;3.97;;;20.50;59.30;;;;;;4967051;28;87012;-84
2021/05/20 15:06:51;;;;;;;4.47;4.28;;;22.00;52.40;;;;;;4963840;28;86486;-85
2021/05/20 15:10:04;;;;;;;2.80;2.60;;;21.90;49.70;;;;;;4968474;28;87083;-88
2021/05/20 15:17:17;;;;;;;2.60;2.50;;;22.40;48.00;;;;;;4972304;28;87000;-88
2021/05/20 15:19:43;;;;;;;4.40;4.20;;;22.80;51.80;;;;;;4972091;28;86051;-88
2021/05/20 15:22:09;;;;;;;2.38;2.17;;;22.50;48.10;;;;;;4987691;28;87161;-85
2021/05/20 15:24:35;;;;;;;2.30;2.20;;;22.50;48.10;;;;;;4980867;28;86792;-86
2021/05/20 15:27:02;;;;;;;2.40;2.20;;;22.50;47.10;;;;;;4963311;28;88032;-85
2021/05/20 15:29:29;;;;;;;2.22;2.13;;;22.20;47.70;;;;;;4968937;28;86457;-84
2021/05/20 15:31:56;;;;;;;2.20;2.10;;;22.00;48.40;;;;;;4958514;28;89078;-84
2021/05/20 15:34:22;;;;;;;2.35;2.25;;;21.80;48.60;;;;;;4964177;28;86950;-81
2021/05/20 15:36:49;;;;;;;7.63;5.95;;;21.50;49.10;;;;;;4958345;28;87130;-82
2021/05/20 15:39:15;;;;;;;4.50;4.05;;;21.20;49.60;;;;;;4956363;28;86872;-82
2021/05/20 15:41:41;;;;;;;5.38;4.88;;;20.10;54.50;;;;;;4962674;28;87742;-81
2021/05/20 15:44:08;;;;;;;3.72;3.42;;;20.60;51.30;;;;;;4959306;28;87405;-83
2021/05/20 15:46:34;;;;;;;17.27;5.25;;;20.30;51.90;;;;;;4957878;28;86888;-83
2021/05/20 15:51:44;;;;;;;5.13;3.33;;;19.80;53.30;;;;;;4949071;28;87859;-82
2021/05/20 15:54:11;;;;;;;2.85;2.65;;;19.50;53.00;;;;;;4966992;28;88062;-83
2021/05/20 15:56:40;;;;;;;3.40;3.10;;;19.20;53.00;;;;;;4953044;28;88756;-82
2021/05/20 15:59:06;;;;;;;2.35;2.20;;;18.90;53.50;;;;;;4951847;28;87235;-80
2021/05/20 16:01:36;;;;;;;3.70;3.60;;;19.10;63.30;;;;;;4952577;28;88113;-82
2021/05/20 16:04:03;;;;;;;1.85;1.77;;;18.50;55.90;;;;;;4954334;28;87147;-82
2021/05/20 16:06:32;;;;;;;2.10;2.00;;;18.40;55.70;;;;;;4968777;28;86868;-80
2021/05/20 16:09:02;;;;;;;2.20;2.10;;;18.40;56.40;;;;;;4970663;28;86240;-83
2021/05/20 16:11:38;;;;;;;2.30;2.20;;;18.40;56.40;;;;;;4973506;28;86856;-80
2021/05/20 16:14:31;;;;;;;3.70;3.60;;;;;;;;;;4971468;28;87179;-84
2021/05/20 16:16:50;;;;;;;3.78;3.53;;;18.40;59.70;;;;;;4964322;28;87573;-82